Time;durP1;ratioP1;P1;durP2;ratioP2;P2;SDS_P1;SDS_P2;PMS_P1;PMS_P2;Temp;Humidity;BMP_temperature;BMP_pressure;BME280_temperature;BME280_humidity;BME280_pressure;Samples;Min_cycle;Max_cycle;Signal;HPM_P1;HPM_P2
2022/07/31 00:01:31;;;;;;;2.53;1.13;;;;;;;22.82;69.94;100449.31;4936965;29;20036;-88
2022/07/31 00:04:37;;;;;;;1.58;1.10;;;;;;;22.78;69.62;100445.47;4953220;29;20067;-91
2022/07/31 00:17:35;;;;;;;;;;;;;;;;;;;;;
2022/07/31 00:26:13;;;;;;;3.90;1.10;;;;;;;22.59;71.77;100440.25;3958377;23;20043;-87
2022/07/31 00:29:19;;;;;;;1.33;0.90;;;;;;;22.60;72.83;100432.97;4973229;29;20050;-87
2022/07/31 00:32:24;;;;;;;1.90;1.30;;;;;;;22.62;72.72;100442.47;4976001;29;20050;-87
2022/07/31 00:35:25;;;;;;;3.42;1.00;;;;;;;22.59;72.10;100437.56;5163235;23;20055;-88
2022/07/31 00:38:53;;;;;;;2.13;1.13;;;;;;;22.59;72.53;100442.13;4959931;29;20039;-87
2022/07/31 00:42:32;;;;;;;4.68;1.20;;;;;;;22.56;73.72;100440.75;4958013;29;20130;-88
2022/07/31 00:45:43;;;;;;;5.35;1.13;;;;;;;22.52;74.97;100438.75;4981567;23;20039;-86
2022/07/31 00:48:30;;;;;;;10.50;1.30;;;;;;;22.53;76.15;100437.72;4962935;29;20109;-89
2022/07/31 00:51:35;;;;;;;2.35;1.08;;;;;;;22.59;76.00;100431.34;4942028;29;20051;-88
2022/07/31 00:54:27;;;;;;;5.28;1.15;;;;;;;22.39;76.52;100436.34;4943559;29;20040;-88
2022/07/31 00:57:54;;;;;;;1.55;0.90;;;;;;;22.44;76.40;100439.97;4971395;29;20043;-87
2022/07/31 01:00:46;;;;;;;2.65;1.60;;;;;;;22.31;78.03;100444.81;4960316;29;20035;-89
2022/07/31 01:03:31;;;;;;;2.90;1.60;;;;;;;22.14;85.24;100451.00;4940283;29;20074;-87
2022/07/31 01:06:43;;;;;;;3.67;1.23;;;;;;;22.15;88.12;100452.63;4975424;29;20105;-85
2022/07/31 01:10:16;;;;;;;2.53;1.38;;;;;;;22.04;92.33;100442.69;4934921;29;20076;-89
2022/07/31 01:13:33;;;;;;;5.57;1.45;;;;;;;22.09;93.55;100442.81;4935905;29;20036;-87
2022/07/31 01:16:42;;;;;;;2.22;1.50;;;;;;;22.24;92.76;100444.19;4935745;29;20044;-87
2022/07/31 01:19:59;;;;;;;3.90;1.65;;;;;;;22.31;91.24;100447.53;4933948;29;20050;-86
2022/07/31 01:23:19;;;;;;;3.42;1.33;;;;;;;22.43;86.16;100446.44;4925871;29;20044;-86
2022/07/31 01:29:27;;;;;;;6.05;1.10;;;;;;;22.30;77.26;100445.91;5019903;23;20055;-85
2022/07/31 01:35:37;;;;;;;2.15;1.00;;;;;;;22.01;72.32;100451.25;5057105;23;20074;-85
2022/07/31 01:41:39;;;;;;;3.40;1.20;;;;;;;22.03;73.06;100448.34;5125259;23;20055;-87
2022/07/31 01:45:26;;;;;;;4.05;1.23;;;;;;;22.02;73.21;100462.88;4913760;29;20054;-87
2022/07/31 01:48:39;;;;;;;3.00;1.00;;;;;;;21.80;74.79;100469.94;4935398;29;20072;-88
2022/07/31 01:51:15;;;;;;;4.47;1.50;;;;;;;21.67;76.06;100470.19;4933699;29;20055;-88
2022/07/31 01:57:31;;;;;;;3.95;1.40;;;;;;;21.64;77.50;100474.19;5020443;23;20091;-86
2022/07/31 02:00:41;;;;;;;1.83;1.10;;;;;;;21.94;75.82;100488.34;4926729;29;20065;-85
2022/07/31 02:03:32;;;;;;;4.70;1.20;;;;;;;21.94;74.70;100482.94;4942007;29;20054;-86
2022/07/31 02:06:03;;;;;;;6.22;1.33;;;;;;;21.87;75.66;100486.81;4975084;29;20039;-87
2022/07/31 02:11:59;;;;;;;3.55;1.27;;;;;;;21.75;77.44;100477.91;4970153;29;20061;-86
2022/07/31 02:14:50;;;;;;;4.15;1.15;;;;;;;21.54;78.30;100479.34;4956997;29;20079;-88
2022/07/31 02:17:57;;;;;;;4.15;1.20;;;;;;;21.39;79.37;100474.41;4972201;29;20066;-87
2022/07/31 02:21:16;;;;;;;3.42;1.20;;;;;;;21.39;78.89;100474.41;4961100;29;20061;-88
2022/07/31 02:23:47;;;;;;;3.53;1.43;;;;;;;21.32;78.74;100464.78;4962137;28;20166;-86
2022/07/31 02:26:29;;;;;;;1.23;1.00;;;;;;;21.40;78.85;100472.53;4930871;29;20052;-85
2022/07/31 02:29:24;;;;;;;4.18;1.10;;;;;;;21.25;79.62;100482.94;4962997;29;20054;-86
2022/07/31 02:32:40;;;;;;;3.80;1.20;;;;;;;21.18;78.81;100479.56;5282279;23;20469;-86
2022/07/31 02:52:52;;;;;;;6.45;1.48;;;;;;;21.13;79.71;100480.22;4323727;23;20063;-89
2022/07/31 02:56:40;;;;;;;3.88;1.30;;;;;;;21.08;80.69;100480.88;4949106;29;20050;-87
2022/07/31 03:03:01;;;;;;;3.20;1.60;;;;;;;21.08;80.69;100485.44;4961107;29;20068;-88
2022/07/31 03:06:08;;;;;;;;;;;;;;;21.06;82.32;100484.88;4929328;29;20039;-87
2022/07/31 03:09:10;;;;;;;2.17;1.15;;;;;;;21.06;82.30;100484.88;4959045;29;19918;-88
2022/07/31 03:12:11;;;;;;;4.45;1.40;;;;;;;21.07;83.26;100492.75;4943451;29;20031;-89
2022/07/31 03:15:44;;;;;;;2.70;1.20;;;;;;;21.04;85.06;100490.50;4958270;29;20078;-86
2022/07/31 03:18:45;;;;;;;8.27;1.65;;;;;;;20.89;86.90;100479.31;4946471;29;20103;-88
2022/07/31 03:21:53;;;;;;;4.85;1.50;;;;;;;20.83;88.37;100480.25;4895937;29;20028;-89
2022/07/31 03:25:24;;;;;;;4.97;1.40;;;;;;;21.02;87.34;100472.91;4877282;29;20041;-87
2022/07/31 03:28:54;;;;;;;3.65;1.40;;;;;;;20.82;88.97;100475.09;5156351;23;20054;-86
2022/07/31 03:32:27;;;;;;;1.60;1.40;;;;;;;20.98;88.08;100471.75;4962351;29;20055;-86
2022/07/31 03:35:48;;;;;;;4.60;1.60;;;;;;;20.91;89.66;100477.22;4979708;29;20047;-88
2022/07/31 03:42:02;;;;;;;3.22;1.40;;;;;;;20.67;92.43;100472.81;4897971;29;20051;-83
2022/07/31 03:44:30;;;;;;;2.25;1.38;;;;;;;20.47;94.13;100475.78;4882299;29;20447;-84
2022/07/31 03:46:56;;;;;;;4.70;1.50;;;;;;;20.46;94.42;100473.31;4899454;29;20092;-83
2022/07/31 03:49:23;;;;;;;4.60;1.30;;;;;;;20.52;93.89;100484.00;4899140;29;20064;-83
2022/07/31 03:51:49;;;;;;;2.35;1.45;;;;;;;20.64;93.26;100486.75;4882539;29;20069;-84
2022/07/31 03:54:15;;;;;;;6.30;1.35;;;;;;;20.46;94.91;100490.28;4898142;29;20517;-83
2022/07/31 03:56:45;;;;;;;4.10;1.30;;;;;;;20.37;95.95;100496.22;4899456;29;20048;-84
2022/07/31 03:59:13;;;;;;;3.58;1.40;;;;;;;20.38;96.76;100497.88;4897896;29;20040;-83
2022/07/31 04:01:40;;;;;;;3.53;1.38;;;;;;;20.33;96.90;100497.72;4898073;29;20028;-83
2022/07/31 04:04:07;;;;;;;3.05;1.27;;;;;;;20.35;97.68;100496.44;4882230;29;20143;-82
2022/07/31 04:06:37;;;;;;;3.88;1.33;;;;;;;20.40;97.86;100493.91;4898232;29;20036;-84
2022/07/31 04:09:03;;;;;;;5.68;2.05;;;;;;;20.37;97.52;100498.91;4883320;29;20047;-84
2022/07/31 04:11:29;;;;;;;5.90;1.45;;;;;;;20.30;99.11;100495.47;4921840;29;20021;-84
2022/07/31 04:13:55;;;;;;;5.70;1.48;;;;;;;20.47;98.38;100491.13;4917211;29;20060;-83
2022/07/31 04:16:20;;;;;;;6.40;1.35;;;;;;;20.47;98.19;100486.56;4916626;29;20050;-85
2022/07/31 04:18:46;;;;;;;4.00;1.20;;;;;;;20.53;97.49;100496.41;4916292;29;20126;-83
2022/07/31 04:21:12;;;;;;;2.75;1.60;;;;;;;20.38;98.35;100504.06;4912644;29;20108;-85
2022/07/31 04:23:38;;;;;;;5.55;1.50;;;;;;;20.45;97.14;100499.41;4902171;29;20028;-84
2022/07/31 04:27:20;;;;;;;4.35;1.88;;;;;;;20.27;98.89;100493.25;4903710;29;20033;-87
2022/07/31 04:32:58;;;;;;;2.80;1.30;;;;;;;20.42;97.91;100501.72;5073346;23;20051;-86
2022/07/31 04:35:46;;;;;;;2.65;1.35;;;;;;;20.46;97.51;100505.63;4980185;28;20027;-88
2022/07/31 04:38:47;;;;;;;4.85;1.50;;;;;;;20.60;97.04;100499.03;4955624;28;20046;-87
2022/07/31 04:47:49;;;;;;;3.05;1.30;;;;;;;20.59;98.70;100500.06;4969796;28;20035;-89
2022/07/31 04:50:43;;;;;;;2.78;1.50;;;;;;;20.52;99.47;100493.94;4960579;29;20023;-89
2022/07/31 04:53:30;;;;;;;7.70;1.73;;;;;;;20.48;99.89;100487.38;4977729;29;20090;-87
2022/07/31 04:59:51;;;;;;;4.47;1.85;;;;;;;20.33;100.00;100505.78;5128739;23;20035;-88
2022/07/31 05:02:43;;;;;;;2.92;1.50;;;;;;;20.43;100.00;100500.69;4959875;29;20038;-90
2022/07/31 05:05:18;;;;;;;5.18;1.60;;;;;;;20.50;100.00;100496.06;4949057;28;20071;-87
2022/07/31 05:08:18;;;;;;;2.63;1.40;;;;;;;20.50;100.00;100496.88;4946073;29;20035;-90
2022/07/31 05:14:11;;;;;;;8.95;2.05;;;;;;;20.84;99.71;100492.69;4957977;29;20047;-88
2022/07/31 05:18:06;;;;;;;5.05;1.50;;;;;;;21.03;96.89;100499.63;4928096;29;20096;-89
2022/07/31 05:21:46;;;;;;;2.88;1.48;;;;;;;21.08;93.63;100502.44;4919335;29;20035;-88
2022/07/31 05:40:17;;;;;;;3.80;1.45;;;;;;;22.64;85.88;100504.34;5127888;23;20040;-88
2022/07/31 07:52:51;;;;;;;11.50;6.93;;;;;;;29.80;47.08;100547.13;4997811;23;20101;-86
2022/07/31 07:55:49;;;;;;;13.05;7.85;;;;;;;29.40;48.67;100539.34;5174209;23;20065;-85
2022/07/31 07:59:38;;;;;;;9.95;6.65;;;;;;;29.94;47.01;100550.03;4996280;28;20035;-87
2022/07/31 08:05:42;;;;;;;;;;;;;;;30.24;44.79;100555.97;5201276;23;20038;-86
2022/07/31 08:14:25;;;;;;;6.45;3.75;;;;;;;30.64;43.10;100546.47;4712217;26;20303;-86
2022/07/31 08:17:38;;;;;;;10.02;3.50;;;;;;;30.59;43.46;100551.22;4948333;28;20038;-90
2022/07/31 08:20:30;;;;;;;7.82;3.22;;;;;;;31.09;42.04;100550.50;4962947;29;20024;-85
2022/07/31 08:23:41;;;;;;;11.32;3.50;;;;;;;31.54;41.17;100561.88;4938796;29;20091;-89
2022/07/31 08:35:33;;;;;;;10.25;3.55;;;;;;;32.32;39.68;100550.03;5280945;23;19957;-88
2022/07/31 08:39:02;;;;;;;4.05;2.88;;;;;;;32.19;38.73;100546.16;4981068;28;20042;-85
2022/07/31 08:44:52;;;;;;;7.47;3.17;;;;;;;31.95;39.24;100548.25;5126575;23;20050;-83
2022/07/31 08:54:48;;;;;;;5.60;3.10;;;;;;;32.74;38.57;100549.69;5202285;23;20046;-88
2022/07/31 08:58:44;;;;;;;11.40;3.70;;;;;;;32.98;37.35;100552.19;5038400;23;20520;-89
2022/07/31 09:09:44;;;;;;;5.65;3.75;;;;;;;32.92;38.35;100543.22;5043513;23;19926;-87
2022/07/31 09:12:59;;;;;;;10.57;5.15;;;;;;;33.27;37.12;100549.84;4980101;28;20051;-84
2022/07/31 09:15:36;;;;;;;5.47;2.90;;;;;;;33.30;38.17;100553.91;4975935;28;20113;-86
2022/07/31 09:18:57;;;;;;;10.07;4.97;;;;;;;33.19;38.38;100554.16;4994469;28;20031;-88
2022/07/31 09:21:25;;;;;;;10.75;3.20;;;;;;;33.26;38.30;100546.28;4977469;28;20062;-87
2022/07/31 09:24:24;;;;;;;11.63;3.78;;;;;;;33.88;37.71;100549.09;4970245;28;20081;-88
2022/07/31 09:27:02;;;;;;;8.68;4.22;;;;;;;34.30;36.15;100547.69;4984480;28;20074;-83
2022/07/31 09:29:59;;;;;;;14.80;5.35;;;;;;;34.40;35.19;100554.84;4958643;28;20054;-88
2022/07/31 09:32:50;;;;;;;8.70;3.85;;;;;;;34.42;35.79;100547.06;4975368;29;20047;-88
2022/07/31 09:35:53;;;;;;;11.77;3.78;;;;;;;34.11;36.25;100542.44;4975671;28;20031;-86
2022/07/31 09:38:36;;;;;;;13.05;4.25;;;;;;;34.16;36.54;100542.31;4973324;28;20407;-85
2022/07/31 09:41:44;;;;;;;6.85;3.92;;;;;;;34.53;36.04;100540.13;4967580;28;20042;-88
2022/07/31 09:44:44;;;;;;;9.07;4.25;;;;;;;34.82;34.39;100540.38;4965551;28;20039;-86
2022/07/31 09:47:46;;;;;;;5.10;2.53;;;;;;;34.90;34.63;100531.31;4963377;28;20491;-87
2022/07/31 09:50:34;;;;;;;15.18;4.03;;;;;;;35.50;33.76;100547.00;4994524;28;20038;-88
2022/07/31 09:53:58;;;;;;;7.10;3.57;;;;;;;35.09;34.13;100545.56;4993631;28;20042;-89
2022/07/31 09:57:14;;;;;;;9.07;4.13;;;;;;;34.78;34.07;100539.38;4992801;28;20033;-88
2022/07/31 09:59:54;;;;;;;6.57;3.38;;;;;;;34.95;33.88;100539.38;5096717;23;20171;-84
2022/07/31 10:02:26;;;;;;;10.65;3.90;;;;;;;34.56;34.21;100532.03;4996240;28;20050;-87
2022/07/31 10:05:36;;;;;;;10.40;3.97;;;;;;;34.67;34.28;100529.84;4978788;28;20023;-87
2022/07/31 10:08:39;;;;;;;10.00;4.22;;;;;;;34.51;34.69;100523.13;4981167;28;20042;-88
2022/07/31 10:11:36;;;;;;;11.07;3.00;;;;;;;35.44;33.60;100523.47;4966090;28;20034;-87
2022/07/31 10:14:27;;;;;;;7.40;3.70;;;;;;;35.96;32.01;100524.16;4979319;28;20130;-88
2022/07/31 10:19:46;;;;;;;5.78;3.28;;;;;;;35.49;33.07;100523.31;5143281;23;20038;-87
2022/07/31 10:22:37;;;;;;;7.55;4.50;;;;;;;35.45;31.48;100520.41;4985478;28;20038;-87
2022/07/31 10:25:27;;;;;;;4.88;3.22;;;;;;;35.26;32.02;100517.22;5000774;28;20070;-87
2022/07/31 10:28:12;;;;;;;7.10;3.40;;;;;;;34.99;31.86;100512.81;4987750;28;20051;-88
2022/07/31 10:30:48;;;;;;;14.00;4.00;;;;;;;35.17;32.40;100517.19;4961112;29;20047;-85
2022/07/31 10:33:29;;;;;;;8.30;3.80;;;;;;;35.36;32.11;100513.28;4952459;28;20050;-86
2022/07/31 10:36:36;;;;;;;7.82;3.50;;;;;;;35.07;32.86;100514.75;4982944;28;20099;-87
2022/07/31 10:39:35;;;;;;;5.68;2.90;;;;;;;35.01;33.11;100506.97;4974125;28;20035;-90
2022/07/31 10:45:10;;;;;;;5.95;3.30;;;;;;;35.77;32.14;100505.25;4969828;29;20046;-80
2022/07/31 10:48:09;;;;;;;7.85;3.10;;;;;;;35.97;31.53;100504.50;4953064;29;20079;-85
2022/07/31 10:51:11;;;;;;;5.03;2.92;;;;;;;35.74;31.82;100500.38;4956273;29;20047;-89
2022/07/31 10:54:18;;;;;;;11.10;3.50;;;;;;;35.61;32.72;100498.66;5022650;23;20142;-90
2022/07/31 10:57:09;;;;;;;6.80;3.10;;;;;;;35.53;32.43;100500.25;4990566;28;20053;-86
2022/07/31 10:59:43;;;;;;;7.07;3.90;;;;;;;35.49;32.47;100493.00;4979792;28;20061;-85
2022/07/31 11:02:40;;;;;;;5.38;3.42;;;;;;;35.61;31.35;100495.88;4983679;28;20086;-87
2022/07/31 11:05:58;;;;;;;6.32;3.50;;;;;;;35.61;31.96;100485.69;4953717;28;20051;-81
2022/07/31 11:09:00;;;;;;;14.63;4.22;;;;;;;35.76;31.89;100481.56;4996285;28;20034;-82
2022/07/31 11:12:00;;;;;;;7.95;4.05;;;;;;;35.53;32.42;100480.16;4998463;28;20035;-85
2022/07/31 11:14:50;;;;;;;9.10;3.35;;;;;;;35.41;33.16;100469.81;4978379;28;20054;-82
2022/07/31 11:17:39;;;;;;;8.43;3.22;;;;;;;36.03;32.22;100475.56;4982745;28;20050;-87
2022/07/31 11:20:48;;;;;;;8.98;3.95;;;;;;;36.15;31.25;100477.66;4997946;28;20019;-84
2022/07/31 11:26:51;;;;;;;7.97;3.33;;;;;;;36.10;32.30;100475.09;5054984;23;20115;-82
2022/07/31 11:30:34;;;;;;;10.85;3.47;;;;;;;35.96;31.40;100469.81;4968319;28;20050;-85
2022/07/31 11:33:48;;;;;;;7.85;3.13;;;;;;;36.49;31.26;100465.59;4886493;29;20044;-84
2022/07/31 11:36:32;;;;;;;5.50;2.28;;;;;;;37.04;29.58;100468.91;4892505;29;20113;-85
2022/07/31 11:39:10;;;;;;;4.70;2.45;;;;;;;36.73;29.93;100466.53;4897696;29;20383;-82
2022/07/31 11:41:42;;;;;;;8.00;2.78;;;;;;;36.15;31.18;100467.44;4859121;29;20113;-84
2022/07/31 11:44:11;;;;;;;9.05;2.53;;;;;;;35.69;31.36;100464.72;4970545;28;20129;-83
2022/07/31 11:50:15;;;;;;;3.97;1.90;;;;;;;35.47;31.29;100453.91;4989973;28;20022;-90
2022/07/31 11:52:42;;;;;;;4.97;1.70;;;;;;;34.79;32.01;100452.88;4974527;28;20046;-80
2022/07/31 11:55:16;;;;;;;3.80;1.77;;;;;;;34.16;32.49;100446.00;4970779;28;20031;-85
2022/07/31 11:57:42;;;;;;;5.38;2.25;;;;;;;34.20;32.42;100447.00;4975131;28;20042;-83
2022/07/31 12:00:15;;;;;;;4.57;2.42;;;;;;;34.21;31.46;100442.28;4988657;28;20031;-81
2022/07/31 12:02:57;;;;;;;5.38;2.10;;;;;;;33.76;32.87;100438.91;4990901;28;20026;-86
2022/07/31 12:08:12;;;;;;;5.15;2.47;;;;;;;33.17;33.36;100435.53;5013587;28;20062;-83
2022/07/31 12:10:42;;;;;;;4.80;2.00;;;;;;;33.35;33.88;100436.44;4979537;28;20046;-86
2022/07/31 12:13:31;;;;;;;8.73;2.08;;;;;;;33.43;35.01;100432.09;4942688;28;20050;-82
2022/07/31 12:16:04;;;;;;;4.97;2.33;;;;;;;33.60;34.97;100422.00;5009001;28;20048;-81
2022/07/31 12:18:35;;;;;;;5.38;2.85;;;;;;;33.45;35.11;100416.09;5007136;28;20061;-85
2022/07/31 12:21:03;;;;;;;;;;;;;;;33.47;35.75;100417.44;4971764;28;20089;-82
2022/07/31 12:24:07;;;;;;;5.95;2.20;;;;;;;33.23;32.79;100419.72;4989436;28;19917;-83
2022/07/31 12:26:36;;;;;;;5.13;1.20;;;;;;;33.25;29.69;100415.53;4966146;28;20137;-80
2022/07/31 12:29:08;;;;;;;3.13;1.10;;;;;;;33.23;29.21;100423.28;4987700;28;20026;-83
2022/07/31 12:31:47;;;;;;;2.90;2.03;;;;;;;33.19;32.12;100405.81;5012014;28;20041;-87
2022/07/31 12:34:44;;;;;;;7.72;3.58;;;;;;;33.05;33.47;100405.03;4993428;28;20534;-89
2022/07/31 12:37:22;;;;;;;8.90;2.30;;;;;;;32.98;35.03;100407.41;5001271;28;20036;-83
2022/07/31 12:39:56;;;;;;;5.18;2.88;;;;;;;32.90;34.69;100413.69;5012419;28;20046;-83
2022/07/31 12:42:32;;;;;;;4.40;2.00;;;;;;;32.98;33.16;100388.19;5010522;28;20108;-82
2022/07/31 12:45:22;;;;;;;3.33;1.70;;;;;;;33.03;32.14;100390.81;4981335;28;20307;-86
2022/07/31 12:47:54;;;;;;;2.78;1.40;;;;;;;32.95;31.45;100399.81;4996834;28;20047;-88
2022/07/31 12:50:55;;;;;;;2.63;1.70;;;;;;;32.96;33.25;100393.19;4996799;28;20122;-85
2022/07/31 12:53:21;;;;;;;5.97;2.20;;;;;;;33.14;33.58;100386.72;4985934;28;20057;-88
2022/07/31 12:55:55;;;;;;;3.92;2.13;;;;;;;33.02;33.03;100375.47;4959841;28;20046;-82
2022/07/31 12:58:23;;;;;;;3.20;2.00;;;;;;;32.95;33.64;100379.78;4976065;28;20492;-83
2022/07/31 13:00:59;;;;;;;5.10;2.47;;;;;;;32.74;32.91;100377.56;5007024;28;20030;-85
2022/07/31 13:03:57;;;;;;;1.85;1.40;;;;;;;32.73;33.51;100375.94;5005917;28;20077;-84
2022/07/31 13:06:26;;;;;;;4.50;1.48;;;;;;;32.84;33.13;100371.00;5011520;28;20054;-84
2022/07/31 13:08:52;;;;;;;3.25;1.35;;;;;;;32.71;33.38;100366.41;4980533;28;20107;-82
2022/07/31 13:11:44;;;;;;;2.85;1.40;;;;;;;32.80;32.65;100361.78;5013012;28;20029;-84
2022/07/31 13:14:13;;;;;;;3.13;1.45;;;;;;;32.67;31.76;100362.66;5006913;28;20091;-83
2022/07/31 13:16:38;;;;;;;1.20;0.90;;;;;;;32.58;27.28;100356.31;4972484;28;20042;-84
2022/07/31 13:19:06;;;;;;;3.45;1.17;;;;;;;32.81;28.09;100352.41;4992965;28;20111;-84
2022/07/31 13:21:35;;;;;;;3.22;1.00;;;;;;;32.76;26.82;100347.84;4993398;28;20561;-83
2022/07/31 13:24:12;;;;;;;2.20;0.90;;;;;;;32.76;27.89;100347.84;4991800;28;20039;-84
2022/07/31 13:26:47;;;;;;;2.35;1.17;;;;;;;32.66;28.51;100353.59;4992479;28;20038;-84
2022/07/31 13:29:22;;;;;;;2.20;1.23;;;;;;;32.53;29.61;100348.97;4993024;28;20058;-86
2022/07/31 13:34:55;;;;;;;3.38;1.40;;;;;;;32.73;31.71;100332.03;4797880;26;20043;-85
2022/07/31 13:41:26;;;;;;;28.13;2.50;;;;;;;32.82;32.52;100343.03;5015455;28;20058;-90
2022/07/31 13:52:46;;;;;;;2.60;1.13;;;;;;;32.49;28.70;100330.69;3692763;26;19970;-88
2022/07/31 13:55:46;;;;;;;4.10;1.05;;;;;;;32.28;27.93;100332.31;4926288;29;20050;-89
2022/07/31 13:59:06;;;;;;;3.30;1.25;;;;;;;32.37;26.84;100338.66;4947830;29;20055;-85
2022/07/31 14:02:45;;;;;;;6.88;1.38;;;;;;;32.42;26.84;100327.56;4968643;29;20147;-90
2022/07/31 14:05:47;;;;;;;3.72;1.30;;;;;;;32.62;27.19;100324.34;4964651;29;20070;-87
2022/07/31 14:20:22;;;;;;;2.45;1.10;;;;;;;32.32;29.72;100303.13;5056752;23;19948;-87
2022/07/31 14:22:56;;;;;;;2.67;1.23;;;;;;;32.37;29.44;100295.59;4990043;28;20034;-90
2022/07/31 14:28:11;;;;;;;;;;;;;;;32.48;30.25;100290.66;5510747;23;20034;-87
2022/07/31 14:31:18;;;;;;;4.25;1.00;;;;;;;32.23;29.23;100295.66;5006068;28;19906;-91
2022/07/31 14:34:03;;;;;;;1.70;0.80;;;;;;;32.19;29.90;100293.81;4988692;28;20069;-89
2022/07/31 14:36:59;;;;;;;6.25;1.60;;;;;;;31.98;29.03;100290.75;5005117;28;20049;-88
2022/07/31 14:40:07;;;;;;;5.85;1.50;;;;;;;31.97;28.91;100288.28;4968774;28;20099;-89
2022/07/31 14:43:01;;;;;;;3.42;1.00;;;;;;;31.92;29.36;100291.94;4984043;28;20041;-88
2022/07/31 14:46:08;;;;;;;3.03;1.00;;;;;;;32.04;29.22;100286.78;5019442;28;20069;-88
2022/07/31 14:49:06;;;;;;;6.63;2.65;;;;;;;32.03;28.93;100279.63;4942700;29;20060;-87
2022/07/31 14:52:03;;;;;;;2.63;1.15;;;;;;;32.22;30.00;100271.25;5061859;23;20047;-89
2022/07/31 14:55:12;;;;;;;2.85;1.23;;;;;;;32.32;29.96;100272.97;5002094;28;20081;-89
2022/07/31 15:03:48;;;;;;;1.45;1.08;;;;;;;32.14;29.79;100269.28;5148993;23;19910;-89
2022/07/31 15:22:33;;;;;;;;;;;;;;;31.89;31.20;100251.44;5512588;23;20082;-85
2022/07/31 15:25:19;;;;;;;1.88;0.93;;;;;;;31.96;28.96;100256.50;5010632;28;19941;-84
2022/07/31 15:28:05;;;;;;;2.03;1.60;;;;;;;31.94;29.43;100243.13;4972080;28;20057;-87
2022/07/31 15:34:01;;;;;;;5.90;1.10;;;;;;;32.05;30.26;100243.72;5405775;23;20039;-88
2022/07/31 15:37:10;;;;;;;1.10;0.90;;;;;;;32.12;30.35;100239.41;5440465;23;20064;-88
2022/07/31 15:39:41;;;;;;;2.80;1.02;;;;;;;32.14;30.17;100242.66;4973863;28;20057;-88
2022/07/31 15:43:33;;;;;;;1.30;1.00;;;;;;;32.16;30.04;100234.94;5102747;23;20061;-86
2022/07/31 15:46:26;;;;;;;2.08;1.27;;;;;;;32.09;30.07;100237.28;4982800;28;20029;-86
2022/07/31 15:49:02;;;;;;;2.05;0.90;;;;;;;32.10;30.63;100247.16;4971749;28;20020;-90
2022/07/31 15:52:02;;;;;;;1.67;1.20;;;;;;;32.10;29.35;100236.19;4995365;28;20053;-89
2022/07/31 16:03:35;;;;;;;1.70;1.00;;;;;;;32.26;29.97;100229.19;5005187;28;20069;-88
2022/07/31 16:06:32;;;;;;;5.03;2.60;;;;;;;32.35;30.69;100231.19;4999393;28;20066;-86
2022/07/31 16:09:34;;;;;;;2.25;1.00;;;;;;;32.26;29.26;100226.44;5011032;28;20085;-86
2022/07/31 16:12:13;;;;;;;6.00;1.27;;;;;;;32.13;29.53;100221.84;4947980;29;20052;-84
2022/07/31 16:14:57;;;;;;;7.20;1.27;;;;;;;32.11;29.84;100215.88;4950727;29;20059;-83
2022/07/31 16:17:56;;;;;;;4.68;1.98;;;;;;;32.23;29.68;100218.84;4963506;29;20039;-82
2022/07/31 16:20:51;;;;;;;4.22;1.20;;;;;;;32.25;31.22;100213.84;4957596;29;20016;-85
2022/07/31 16:23:41;;;;;;;6.22;1.08;;;;;;;32.23;31.42;100204.31;4953969;29;20044;-88
2022/07/31 16:26:39;;;;;;;4.32;1.83;;;;;;;32.20;31.04;100205.75;4956514;29;20094;-84
2022/07/31 16:29:34;;;;;;;5.00;2.33;;;;;;;32.05;30.42;100199.84;5014644;23;20353;-85
2022/07/31 16:32:37;;;;;;;3.88;1.65;;;;;;;32.07;31.73;100195.69;5007015;28;20042;-88
2022/07/31 16:36:19;;;;;;;4.05;1.50;;;;;;;32.04;30.20;100196.31;5008486;28;20049;-86
2022/07/31 16:39:28;;;;;;;2.17;1.25;;;;;;;31.81;29.59;100188.34;5059581;23;20089;-91
2022/07/31 16:42:26;;;;;;;3.33;1.20;;;;;;;31.88;30.71;100195.03;4978727;28;20034;-85
2022/07/31 16:45:39;;;;;;;1.98;1.00;;;;;;;31.93;31.27;100186.66;4965503;28;20069;-90
2022/07/31 16:48:32;;;;;;;2.67;1.23;;;;;;;31.97;31.18;100182.19;4972403;28;20035;-89
2022/07/31 16:51:10;;;;;;;2.67;1.27;;;;;;;31.90;30.67;100181.81;4977357;28;20045;-87
2022/07/31 17:03:15;;;;;;;2.65;1.30;;;;;;;31.89;31.89;100180.19;4994813;28;20053;-84
2022/07/31 17:09:31;;;;;;;2.60;1.30;;;;;;;32.03;32.41;100180.94;4997934;28;20112;-85
2022/07/31 17:12:30;;;;;;;4.95;1.85;;;;;;;32.08;32.00;100189.06;4979230;28;20095;-86
2022/07/31 17:23:50;;;;;;;;;;;;;;;32.05;30.92;100188.88;4278919;23;20051;-84
2022/07/31 17:38:16;;;;;;;2.17;1.38;;;;;;;31.90;31.46;100190.03;5028002;23;20067;-82
2022/07/31 17:41:05;;;;;;;3.15;1.00;;;;;;;31.93;31.20;100197.63;4996584;28;20035;-90
2022/07/31 17:44:19;;;;;;;1.95;1.20;;;;;;;31.85;31.31;100198.38;4963214;28;20046;-89
2022/07/31 17:46:44;;;;;;;1.48;1.00;;;;;;;31.75;31.82;100204.13;4975267;28;20129;-85
2022/07/31 17:49:12;;;;;;;2.28;1.20;;;;;;;31.78;31.90;100200.75;4977835;28;20067;-90
2022/07/31 17:51:44;;;;;;;6.50;3.78;;;;;;;31.75;31.92;100195.88;4981391;28;20050;-86
2022/07/31 17:54:50;;;;;;;9.82;6.10;;;;;;;31.79;31.98;100205.09;4992939;28;20058;-91
2022/07/31 18:00:26;;;;;;;7.25;3.05;;;;;;;31.83;32.56;100208.03;2424069;23;20047;-85
2022/07/31 18:02:55;;;;;;;6.22;1.92;;;;;;;31.69;31.90;100208.06;4966319;28;20039;-83
2022/07/31 18:05:26;;;;;;;12.60;3.75;;;;;;;31.67;35.35;100199.34;4970965;28;20078;-83
2022/07/31 18:08:24;;;;;;;6.18;2.83;;;;;;;31.54;33.34;100213.91;4963553;28;20027;-84
2022/07/31 18:11:30;;;;;;;16.75;8.50;;;;;;;31.49;33.28;100213.97;4957690;29;20098;-81
2022/07/31 18:13:56;;;;;;;7.88;3.97;;;;;;;31.41;32.47;100222.94;4968091;28;20031;-83
2022/07/31 18:16:26;;;;;;;5.38;3.80;;;;;;;31.44;32.41;100216.84;4953658;28;20055;-85
2022/07/31 18:19:21;;;;;;;9.30;3.28;;;;;;;31.40;32.27;100221.31;4987323;28;20074;-84
2022/07/31 18:21:52;;;;;;;15.65;4.75;;;;;;;31.22;33.96;100231.28;4970260;28;20055;-84
2022/07/31 18:24:23;;;;;;;10.63;4.55;;;;;;;31.33;36.19;100226.38;4966700;28;20070;-83
2022/07/31 18:26:55;;;;;;;8.63;3.45;;;;;;;31.30;34.81;100227.00;4973372;28;20054;-85
2022/07/31 18:29:50;;;;;;;15.30;7.10;;;;;;;31.33;33.74;100238.16;4995743;28;20070;-87
2022/07/31 18:32:24;;;;;;;17.65;7.15;;;;;;;31.36;37.56;100225.78;4970917;28;20114;-83
2022/07/31 18:35:09;;;;;;;8.38;4.53;;;;;;;31.33;35.91;100231.88;4996604;28;20042;-85
2022/07/31 18:37:47;;;;;;;6.43;2.90;;;;;;;31.30;35.32;100227.81;4963645;28;20070;-83
2022/07/31 18:40:32;;;;;;;9.20;3.03;;;;;;;31.27;35.37;100229.25;4978172;28;20059;-85
2022/07/31 18:43:35;;;;;;;7.03;4.63;;;;;;;31.22;35.30;100234.03;4946634;29;20051;-91
2022/07/31 18:46:36;;;;;;;7.65;4.03;;;;;;;30.98;35.17;100236.97;4967818;28;20038;-88
2022/07/31 18:49:09;;;;;;;6.25;1.67;;;;;;;30.95;35.00;100229.34;4962669;28;20027;-89
2022/07/31 18:51:40;;;;;;;4.50;2.35;;;;;;;30.95;35.44;100228.53;4994997;28;20098;-81
2022/07/31 18:54:08;;;;;;;7.67;3.30;;;;;;;30.94;34.77;100235.09;4992087;28;20045;-84
2022/07/31 18:56:34;;;;;;;3.05;2.03;;;;;;;30.90;34.27;100234.91;4967605;28;20077;-83
2022/07/31 18:59:13;;;;;;;4.25;1.80;;;;;;;30.84;34.30;100241.59;4944408;29;20038;-82
2022/07/31 19:01:39;;;;;;;3.90;2.15;;;;;;;30.81;33.99;100236.72;4961957;28;20049;-81
2022/07/31 19:04:17;;;;;;;3.88;2.10;;;;;;;30.80;34.78;100234.28;4977962;28;20039;-81
2022/07/31 19:06:51;;;;;;;7.78;3.60;;;;;;;30.73;34.06;100235.50;4971656;28;20042;-82
2022/07/31 19:09:29;;;;;;;9.00;3.20;;;;;;;30.69;35.27;100239.16;4976656;28;20137;-83
2022/07/31 19:12:02;;;;;;;9.88;2.20;;;;;;;30.60;36.82;100243.69;4980513;28;20051;-83
2022/07/31 19:14:33;;;;;;;4.28;1.70;;;;;;;30.31;38.80;100232.94;4959823;29;20524;-82
2022/07/31 19:17:00;;;;;;;4.15;2.10;;;;;;;29.74;41.15;100240.38;4997323;23;20043;-85
2022/07/31 19:19:39;;;;;;;6.90;1.17;;;;;;;29.15;45.36;100248.25;4990460;23;20043;-83
2022/07/31 19:22:06;;;;;;;3.38;1.27;;;;;;;28.82;47.18;100249.97;5001587;28;20046;-84
2022/07/31 19:24:42;;;;;;;2.60;1.60;;;;;;;28.67;48.24;100247.38;4985973;28;20095;-80
2022/07/31 19:27:12;;;;;;;2.15;1.40;;;;;;;28.77;48.22;100258.19;4994062;28;20042;-80